Time;durP1;ratioP1;P1;durP2;ratioP2;P2;SDS_P1;SDS_P2;PMS_P1;PMS_P2;Temp;Humidity;BMP_temperature;BMP_pressure;BME280_temperature;BME280_humidity;BME280_pressure;Samples;Min_cycle;Max_cycle;Signal;HPM_P1;HPM_P2
2023/06/25 00:02:17;;;;;;;10.20;9.10;;;24.00;72.10;;;26.68;47.72;102046.66;5052549;28;20233;-57
2023/06/25 00:04:44;;;;;;;9.43;8.53;;;24.00;72.10;;;26.60;48.00;102046.28;5052266;28;20268;-59
2023/06/25 00:07:11;;;;;;;10.00;9.10;;;23.90;72.30;;;26.53;47.80;102042.94;5046285;28;20199;-59
2023/06/25 00:09:39;;;;;;;9.30;8.40;;;23.80;72.60;;;26.50;48.63;102040.72;5032932;28;20659;-55
2023/06/25 00:12:08;;;;;;;8.23;7.53;;;23.80;73.30;;;26.48;48.18;102038.25;5049710;28;20225;-58
2023/06/25 00:14:37;;;;;;;12.97;11.00;;;23.70;73.30;;;26.47;48.56;102028.53;5048152;28;20690;-59
2023/06/25 00:17:05;;;;;;;10.43;8.47;;;23.70;73.50;;;26.47;48.97;102033.09;5032438;28;20225;-59
2023/06/25 00:19:32;;;;;;;9.83;8.93;;;23.70;73.70;;;26.48;48.83;102035.53;5032634;28;20199;-56
2023/06/25 00:21:59;;;;;;;10.20;8.70;;;23.70;73.90;;;26.48;48.45;102035.53;5032489;28;20191;-58
2023/06/25 00:24:26;;;;;;;10.20;9.23;;;23.70;73.90;;;26.49;48.43;102028.25;5032289;28;20281;-58
2023/06/25 00:26:52;;;;;;;10.20;8.70;;;23.70;73.90;;;26.50;48.79;102038.00;5032298;28;20674;-58
2023/06/25 00:29:20;;;;;;;8.40;7.50;;;23.70;73.90;;;26.49;48.67;102025.56;5036505;28;20190;-56
2023/06/25 00:31:48;;;;;;;9.27;8.37;;;23.70;73.90;;;26.50;48.38;102024.50;5035976;28;20297;-59
2023/06/25 00:34:19;;;;;;;10.23;9.13;;;23.70;73.90;;;26.48;48.81;102029.34;5036637;28;20270;-58
2023/06/25 00:36:51;;;;;;;11.30;9.63;;;23.70;73.70;;;26.45;48.49;102025.25;5036751;28;20202;-57
2023/06/25 00:39:18;;;;;;;10.70;9.70;;;23.70;73.50;;;26.40;48.29;102038.69;5036465;28;20266;-57
2023/06/25 00:41:46;;;;;;;9.33;8.53;;;23.70;73.60;;;26.35;48.75;102030.50;5051535;28;20269;-57
2023/06/25 00:44:13;;;;;;;9.83;8.90;;;23.60;73.60;;;26.31;48.57;102040.16;5055884;28;20297;-58
2023/06/25 00:46:41;;;;;;;9.20;8.40;;;23.60;74.00;;;26.27;48.61;102033.59;5055736;28;20201;-58
2023/06/25 00:49:09;;;;;;;9.87;8.97;;;23.50;74.20;;;26.25;49.49;102034.91;5056116;28;20193;-56
2023/06/25 00:51:36;;;;;;;10.07;9.10;;;23.50;74.60;;;26.23;48.98;102034.34;5055049;28;20210;-57
2023/06/25 00:54:05;;;;;;;9.63;8.73;;;23.50;74.90;;;26.22;49.02;102030.81;5055835;28;20703;-58
2023/06/25 00:56:33;;;;;;;9.77;8.87;;;23.50;75.00;;;26.22;49.13;102028.13;5055785;28;20223;-59
2023/06/25 00:59:02;;;;;;;10.97;9.30;;;23.50;74.90;;;26.20;49.28;102027.56;5056368;28;20190;-58
2023/06/25 01:01:41;;;;;;;10.40;9.40;;;23.40;74.70;;;26.17;48.94;102028.06;5056070;28;20198;-57
2023/06/25 01:04:19;;;;;;;11.53;8.63;;;23.40;74.70;;;26.13;49.54;102026.91;5043420;28;20277;-59
2023/06/25 01:06:51;;;;;;;9.27;8.37;;;23.40;75.00;;;26.13;49.62;102024.19;5035506;28;20205;-57
2023/06/25 01:09:20;;;;;;;9.67;8.77;;;23.40;75.10;;;26.14;49.29;102017.75;5036050;28;20203;-57
2023/06/25 01:11:58;;;;;;;10.50;9.40;;;23.40;75.10;;;26.13;49.25;102016.94;5043718;28;20244;-59
2023/06/25 01:14:27;;;;;;;9.37;8.47;;;23.40;75.20;;;26.11;49.95;102019.06;5055148;28;20272;-59
2023/06/25 01:16:55;;;;;;;11.23;9.23;;;23.40;75.30;;;26.12;49.87;102022.59;5055280;28;20190;-56
2023/06/25 01:19:29;;;;;;;11.07;9.97;;;23.40;75.00;;;26.09;49.02;102020.34;5055613;28;20706;-56
2023/06/25 01:21:59;;;;;;;9.30;8.50;;;23.30;74.80;;;26.03;49.50;102021.34;5055647;28;20213;-58
2023/06/25 01:24:29;;;;;;;10.23;9.23;;;23.30;74.70;;;25.97;49.21;102020.41;5055427;28;20670;-57
2023/06/25 01:27:00;;;;;;;10.40;9.40;;;23.30;75.10;;;25.92;49.94;102014.94;5055517;28;20197;-58
2023/06/25 01:29:28;;;;;;;11.43;9.53;;;23.20;75.30;;;25.88;50.07;102012.97;5055419;28;20174;-61
2023/06/25 01:31:57;;;;;;;9.87;8.97;;;23.10;75.50;;;25.84;50.29;102018.03;5054219;28;20296;-59
2023/06/25 01:34:24;;;;;;;10.63;9.73;;;23.10;75.70;;;25.80;49.80;102010.66;5055029;28;20194;-59
2023/06/25 01:36:52;;;;;;;11.23;9.30;;;23.00;75.70;;;25.75;50.25;102007.88;5054473;28;20252;-57
2023/06/25 01:39:21;;;;;;;9.50;8.70;;;23.00;75.90;;;25.71;50.52;102012.13;5054684;28;20223;-59
2023/06/25 01:41:50;;;;;;;10.67;9.57;;;22.90;76.10;;;25.68;50.61;102007.22;5054862;28;20189;-58
2023/06/25 01:44:25;;;;;;;10.00;9.00;;;22.90;76.50;;;25.64;50.72;102008.78;5054645;28;20213;-60
2023/06/25 01:46:53;;;;;;;11.40;10.33;;;22.80;76.70;;;25.64;50.96;102006.06;5055101;28;20232;-57
2023/06/25 01:49:20;;;;;;;11.40;9.93;;;22.80;77.00;;;25.63;50.93;101996.34;5055115;28;20225;-58
2023/06/25 01:51:58;;;;;;;11.30;9.30;;;22.80;77.30;;;25.63;50.88;102001.72;5054712;28;20292;-58
2023/06/25 01:54:27;;;;;;;10.90;9.47;;;22.80;77.50;;;25.64;50.92;101995.28;5054731;28;20213;-56
2023/06/25 01:56:55;;;;;;;9.97;8.97;;;22.80;77.60;;;25.63;50.68;101993.63;5054160;28;20213;-58
2023/06/25 01:59:22;;;;;;;10.87;9.87;;;22.80;77.60;;;25.65;51.49;101991.53;5054452;28;20196;-58
2023/06/25 02:01:49;;;;;;;10.40;9.40;;;22.80;77.50;;;25.65;51.31;101986.16;5054639;28;20189;-59
2023/06/25 02:04:16;;;;;;;10.80;9.53;;;22.80;77.50;;;25.63;51.20;101982.84;5054481;28;20186;-57
2023/06/25 02:06:43;;;;;;;10.13;9.20;;;22.80;77.40;;;25.61;50.87;101984.97;5054623;28;20196;-57
2023/06/25 02:09:10;;;;;;;10.47;9.37;;;22.80;77.50;;;25.56;51.17;101977.63;5053379;28;20251;-56
2023/06/25 02:11:37;;;;;;;11.07;9.43;;;22.80;77.80;;;25.54;51.34;101977.03;5054358;28;20300;-57
2023/06/25 02:14:06;;;;;;;11.40;10.00;;;22.80;77.80;;;25.52;51.77;101973.78;5047959;28;20187;-57
2023/06/25 02:16:33;;;;;;;11.13;9.27;;;22.70;78.10;;;25.51;51.31;101975.66;5034769;28;20220;-57
2023/06/25 02:19:00;;;;;;;10.67;9.57;;;22.70;78.30;;;25.49;51.40;101972.38;5034744;28;20265;-58
2023/06/25 02:21:29;;;;;;;11.67;10.57;;;22.70;78.30;;;25.49;51.83;101972.38;5034683;28;20226;-57
2023/06/25 02:23:56;;;;;;;10.93;9.93;;;22.70;78.40;;;25.47;51.32;101969.13;5034322;28;20195;-59
2023/06/25 02:26:23;;;;;;;11.03;9.97;;;22.70;78.60;;;25.47;51.95;101963.72;5034146;28;20217;-58
2023/06/25 02:28:50;;;;;;;10.73;9.73;;;22.70;78.70;;;25.45;51.57;101971.25;5046164;28;20240;-58
2023/06/25 02:31:18;;;;;;;10.57;9.57;;;22.70;78.80;;;25.44;51.56;101966.91;5054356;28;20217;-58
2023/06/25 02:33:45;;;;;;;11.67;10.47;;;22.70;78.90;;;25.44;51.70;101961.50;5053900;28;20196;-57
2023/06/25 02:36:12;;;;;;;11.80;10.70;;;22.70;79.00;;;25.44;51.80;101958.81;5054388;28;20267;-56
2023/06/25 02:38:39;;;;;;;10.13;9.20;;;22.60;78.90;;;25.44;51.67;101957.97;5043889;28;20205;-54
2023/06/25 02:41:06;;;;;;;10.20;9.20;;;22.60;78.80;;;25.41;52.18;101959.25;5043782;28;20201;-57
2023/06/25 02:43:33;;;;;;;10.47;9.47;;;22.60;79.00;;;25.41;51.73;101967.34;5054026;28;20570;-57
2023/06/25 02:46:00;;;;;;;11.87;10.67;;;22.60;79.00;;;25.41;52.48;101964.63;5054060;28;20224;-58
2023/06/25 02:48:28;;;;;;;12.53;10.33;;;22.70;79.30;;;25.42;52.09;101960.91;5053581;28;20232;-57
2023/06/25 02:50:56;;;;;;;12.50;11.20;;;22.70;79.30;;;25.43;52.58;101956.31;5052994;28;20267;-58
2023/06/25 02:53:22;;;;;;;11.93;10.73;;;22.60;79.20;;;25.45;51.94;101965.03;5053549;28;20186;-56
2023/06/25 02:55:49;;;;;;;12.57;11.17;;;22.70;79.10;;;25.43;51.79;101962.53;5053846;28;20209;-57
2023/06/25 02:58:16;;;;;;;13.73;11.40;;;22.70;79.20;;;25.45;52.41;101959.63;5053291;28;20272;-56
2023/06/25 03:00:43;;;;;;;11.90;10.80;;;22.70;79.30;;;25.47;51.85;101961.03;5054105;28;20190;-57
2023/06/25 03:03:10;;;;;;;13.07;11.87;;;22.70;79.10;;;25.45;51.93;101963.16;5053629;28;20209;-56
2023/06/25 03:05:39;;;;;;;13.27;11.97;;;22.70;79.20;;;25.47;51.75;101961.03;5053864;28;20213;-56
2023/06/25 03:08:06;;;;;;;12.60;11.30;;;22.70;79.20;;;25.49;52.30;101950.81;5048020;28;20191;-60
2023/06/25 03:10:36;;;;;;;13.17;11.87;;;22.70;79.20;;;25.50;52.44;101952.44;5037886;28;20240;-58
2023/06/25 03:13:04;;;;;;;13.23;11.93;;;22.70;79.10;;;25.50;52.21;101960.53;5053288;28;20213;-57
2023/06/25 03:15:31;;;;;;;11.67;10.57;;;22.80;79.10;;;25.50;52.01;101954.31;5052582;28;20224;-57
2023/06/25 03:17:58;;;;;;;13.10;11.83;;;22.80;79.00;;;25.50;51.86;101962.41;5053485;28;20622;-58
2023/06/25 03:20:25;;;;;;;12.50;11.33;;;22.70;79.00;;;25.51;51.84;101953.25;5053512;28;20194;-58
2023/06/25 03:22:54;;;;;;;13.97;12.27;;;22.80;79.20;;;25.52;51.59;101944.94;5053313;28;20276;-57
2023/06/25 03:25:21;;;;;;;14.73;13.13;;;22.80;79.10;;;25.51;51.58;101943.28;5052944;28;20210;-55
2023/06/25 03:27:48;;;;;;;15.07;13.67;;;22.80;78.90;;;25.48;51.57;101951.06;5053662;28;20221;-58
2023/06/25 03:30:15;;;;;;;12.90;11.70;;;22.70;78.60;;;25.42;52.28;101954.69;5053983;28;20190;-57
2023/06/25 03:32:42;;;;;;;13.90;12.57;;;22.70;78.80;;;25.38;51.92;101948.97;5053444;28;20233;-56
2023/06/25 03:35:09;;;;;;;13.77;12.40;;;22.60;79.00;;;25.37;51.63;101950.03;5053120;28;20614;-58
2023/06/25 03:37:36;;;;;;;15.20;13.67;;;22.60;79.40;;;25.38;52.03;101954.38;5053648;28;20714;-57
2023/06/25 03:40:06;;;;;;;15.57;13.93;;;22.60;79.50;;;25.38;52.59;101943.56;5053020;28;20738;-58
2023/06/25 03:42:34;;;;;;;15.60;14.00;;;22.60;79.50;;;25.34;52.62;101942.41;5053621;28;20671;-58
2023/06/25 03:45:00;;;;;;;14.57;13.17;;;22.50;79.40;;;25.32;52.75;101947.22;5046125;28;20215;-55
2023/06/25 03:47:28;;;;;;;17.00;13.50;;;22.50;79.70;;;25.29;52.13;101944.22;5033724;28;20214;-57
2023/06/25 03:49:55;;;;;;;12.97;11.77;;;22.50;79.70;;;25.24;52.63;101936.84;5033610;28;20191;-57
2023/06/25 03:52:22;;;;;;;14.10;12.80;;;22.50;79.90;;;25.22;53.02;101944.34;5033548;28;20214;-58
2023/06/25 03:54:49;;;;;;;14.73;13.20;;;22.40;80.10;;;25.19;52.97;101942.16;5033217;28;20211;-57
2023/06/25 03:57:17;;;;;;;15.37;13.87;;;22.50;80.20;;;25.17;52.39;101944.28;5034328;28;20524;-57
2023/06/25 03:59:44;;;;;;;13.70;12.33;;;22.40;80.30;;;25.16;53.13;101937.22;5033724;28;20193;-57
2023/06/25 04:02:11;;;;;;;15.13;13.37;;;22.30;80.30;;;25.16;52.56;101939.94;5047567;28;20564;-58
2023/06/25 04:04:38;;;;;;;14.33;13.00;;;22.40;80.30;;;25.13;53.16;101945.78;5056688;28;20297;-58
2023/06/25 04:07:05;;;;;;;15.00;13.50;;;22.30;80.20;;;25.11;52.55;101931.75;5056830;28;20268;-55
2023/06/25 04:09:32;;;;;;;12.70;11.40;;;22.30;80.30;;;25.09;52.77;101946.53;5056845;28;20269;-55
2023/06/25 04:11:59;;;;;;;14.30;12.90;;;22.30;80.60;;;25.06;53.22;101945.13;5056832;28;20210;-57
2023/06/25 04:14:28;;;;;;;14.70;13.40;;;22.30;80.60;;;25.03;53.04;101934.81;5055586;28;20276;-56
2023/06/25 04:16:54;;;;;;;14.43;12.93;;;22.20;80.50;;;25.03;52.80;101944.81;5056640;28;20190;-58
2023/06/25 04:19:21;;;;;;;15.03;13.37;;;22.20;80.80;;;25.04;52.84;101939.16;5056436;28;20190;-55
2023/06/25 04:21:48;;;;;;;12.87;11.57;;;22.20;80.70;;;25.05;52.74;101935.41;5056818;28;20276;-59
2023/06/25 04:24:15;;;;;;;14.50;13.10;;;22.20;80.90;;;25.07;53.33;101936.00;5038427;28;20230;-56
2023/06/25 04:26:42;;;;;;;13.50;12.20;;;22.20;80.80;;;25.10;52.74;101934.69;5036851;28;20348;-56
2023/06/25 04:29:09;;;;;;;16.27;14.73;;;22.30;80.70;;;25.12;52.34;101935.25;5036957;28;20194;-58
2023/06/25 04:31:39;;;;;;;15.27;13.77;;;22.30;80.20;;;25.13;52.25;101929.63;5036677;28;20731;-58
2023/06/25 04:34:06;;;;;;;15.20;13.67;;;22.30;80.30;;;25.15;52.80;101932.09;5036094;28;20197;-59
2023/06/25 04:36:33;;;;;;;14.33;12.83;;;22.30;80.40;;;25.16;52.85;101923.75;5036245;28;20302;-57
2023/06/25 04:39:00;;;;;;;14.10;12.67;;;22.30;80.40;;;25.20;52.71;101932.97;5044237;28;20198;-55
2023/06/25 04:41:27;;;;;;;13.10;11.90;;;22.30;80.20;;;25.23;52.12;101929.81;5055925;28;20197;-57
2023/06/25 04:43:54;;;;;;;14.73;13.07;;;22.40;80.20;;;25.28;52.45;101923.69;5055924;28;20560;-54
2023/06/25 04:46:21;;;;;;;12.97;11.67;;;22.40;80.20;;;25.33;52.23;101930.00;5055307;28;20220;-58
2023/06/25 04:48:51;;;;;;;14.33;12.93;;;22.40;80.00;;;25.38;52.29;101922.00;5056439;28;20244;-54
2023/06/25 04:51:18;;;;;;;13.20;12.00;;;22.50;79.70;;;25.42;51.48;101928.53;5056297;28;20240;-56
2023/06/25 04:53:45;;;;;;;15.33;13.77;;;22.50;79.50;;;25.45;51.29;101922.69;5055986;28;20200;-56
2023/06/25 04:56:11;;;;;;;13.27;11.97;;;22.60;79.40;;;25.49;51.27;101923.84;5055212;28;20220;-59
2023/06/25 04:58:38;;;;;;;13.47;12.00;;;22.60;79.00;;;25.54;51.74;101921.22;5056143;28;20182;-57
2023/06/25 05:01:05;;;;;;;13.03;11.73;;;22.60;78.80;;;25.60;51.63;101924.00;5055854;28;20276;-55
2023/06/25 05:03:33;;;;;;;12.13;11.03;;;22.70;78.70;;;25.66;51.26;101923.03;5055191;28;20236;-56
2023/06/25 05:06:01;;;;;;;12.93;11.13;;;22.70;78.60;;;25.72;51.42;101925.53;5054949;28;20218;-57
2023/06/25 05:08:28;;;;;;;11.43;10.27;;;22.80;78.60;;;25.78;50.57;101924.56;5055615;28;20281;-54
2023/06/25 05:10:55;;;;;;;15.03;13.43;;;22.90;78.40;;;25.83;50.78;101924.66;5055717;28;20189;-57
2023/06/25 05:13:22;;;;;;;13.20;11.93;;;23.00;77.80;;;25.87;50.54;101920.41;5055480;28;20308;-59
2023/06/25 05:15:49;;;;;;;12.03;10.83;;;23.00;77.60;;;25.90;50.12;101919.91;5051828;28;20741;-55
2023/06/25 05:18:16;;;;;;;14.43;12.50;;;23.00;77.40;;;25.96;49.87;101926.22;5055852;28;20284;-55
2023/06/25 05:20:43;;;;;;;13.13;11.83;;;23.10;77.00;;;26.00;49.84;101924.66;5036333;28;20198;-58
2023/06/25 05:23:11;;;;;;;13.63;12.27;;;23.10;76.90;;;26.06;50.14;101913.66;5035557;28;20281;-57
2023/06/25 05:25:38;;;;;;;13.93;12.33;;;23.20;77.00;;;26.11;49.79;101915.66;5036127;28;20717;-59
2023/06/25 05:28:05;;;;;;;14.53;10.87;;;23.20;76.80;;;26.15;49.46;101923.00;5035564;28;20218;-58
2023/06/25 05:30:33;;;;;;;12.10;10.83;;;23.20;76.50;;;26.19;49.04;101918.75;5035134;28;20202;-57
2023/06/25 05:33:02;;;;;;;14.87;12.20;;;23.30;76.40;;;26.22;49.27;101922.03;5034769;28;20276;-58
2023/06/25 05:35:29;;;;;;;12.70;11.50;;;23.40;76.10;;;26.24;49.30;101920.72;5035584;28;20257;-57
2023/06/25 05:37:56;;;;;;;12.70;11.50;;;23.40;75.90;;;26.25;49.17;101921.50;5035345;28;20191;-58
2023/06/25 05:40:26;;;;;;;13.03;11.73;;;23.40;75.70;;;26.28;49.03;101921.00;5039621;28;20610;-58
2023/06/25 05:42:57;;;;;;;11.87;10.60;;;23.50;75.40;;;26.29;49.29;101923.47;5055123;28;20612;-56
2023/06/25 05:45:24;;;;;;;11.47;10.40;;;23.50;75.40;;;26.36;49.27;101913.31;5055052;28;20571;-57
2023/06/25 05:47:51;;;;;;;12.77;11.47;;;23.60;75.40;;;26.41;48.07;101917.97;5054988;28;20269;-58
2023/06/25 05:50:18;;;;;;;12.57;11.27;;;23.60;74.40;;;26.44;48.21;101915.56;5055114;28;20196;-58
2023/06/25 05:52:46;;;;;;;10.33;9.33;;;23.60;74.40;;;26.49;48.41;101912.94;5055250;28;20210;-59
2023/06/25 05:55:13;;;;;;;10.37;9.37;;;23.70;74.50;;;26.55;48.38;101909.25;5049488;28;20207;-55
2023/06/25 05:57:41;;;;;;;10.30;8.63;;;23.70;74.60;;;26.64;47.91;101906.91;5035059;28;20278;-58
2023/06/25 06:00:09;;;;;;;10.37;9.37;;;23.80;74.60;;;26.72;47.85;101907.25;5034815;28;20217;-58
2023/06/25 06:02:36;;;;;;;9.73;8.23;;;23.90;74.30;;;26.79;47.84;101916.00;5051851;28;20189;-59
2023/06/25 06:05:04;;;;;;;11.20;10.03;;;23.90;74.30;;;26.86;47.56;101913.13;5053459;28;20221;-59
2023/06/25 06:07:31;;;;;;;8.53;7.63;;;24.00;73.80;;;26.93;47.61;101913.75;5054466;28;20190;-59
2023/06/25 06:09:58;;;;;;;9.83;7.77;;;24.00;73.70;;;27.03;47.68;101910.34;5054558;28;20554;-59
2023/06/25 06:12:25;;;;;;;10.00;9.00;;;24.10;74.30;;;27.09;47.01;101914.72;5054179;28;20206;-58
2023/06/25 06:14:55;;;;;;;9.90;8.90;;;24.20;73.20;;;27.15;46.59;101910.97;5051723;28;20249;-59
2023/06/25 06:17:22;;;;;;;8.70;7.80;;;24.20;72.90;;;27.22;47.15;101914.31;5034762;28;20222;-58
2023/06/25 06:19:49;;;;;;;8.20;7.40;;;24.30;72.80;;;27.28;46.66;101899.75;5034625;28;20237;-58
2023/06/25 06:22:16;;;;;;;7.70;7.00;;;24.40;72.70;;;27.34;46.78;101904.94;5034095;28;20201;-56
2023/06/25 06:24:43;;;;;;;8.97;8.10;;;24.40;72.60;;;27.42;46.51;101907.22;5034714;28;20237;-57
2023/06/25 06:27:11;;;;;;;8.67;7.80;;;24.50;72.60;;;27.53;46.71;101902.69;5033476;28;20203;-57
2023/06/25 06:29:38;;;;;;;8.27;7.47;;;24.60;72.60;;;27.62;46.23;101901.16;5034211;28;20236;-59
2023/06/25 06:32:08;;;;;;;9.03;8.23;;;24.70;72.40;;;27.67;46.02;101903.88;5046602;28;20252;-57
2023/06/25 06:34:35;;;;;;;7.53;6.83;;;24.70;71.80;;;27.72;45.96;101903.94;5053845;28;20313;-57
2023/06/25 06:37:02;;;;;;;9.43;8.07;;;24.80;71.90;;;27.80;45.66;101897.22;5034087;28;20205;-58
2023/06/25 06:39:29;;;;;;;7.87;7.07;;;24.90;71.70;;;27.90;45.78;101897.28;5034208;28;20187;-59
2023/06/25 06:41:56;;;;;;;7.87;7.10;;;24.90;71.60;;;27.98;45.67;101889.50;5051229;28;20194;-56
2023/06/25 06:44:23;;;;;;;8.67;7.70;;;25.00;71.40;;;28.02;45.67;101895.25;5053970;28;20285;-59
2023/06/25 06:46:50;;;;;;;7.33;6.73;;;25.10;70.80;;;28.08;45.16;101888.75;5035939;28;20194;-57
2023/06/25 06:49:19;;;;;;;7.23;6.53;;;25.10;71.00;;;28.17;45.42;101885.28;5033754;28;20195;-58
2023/06/25 06:51:46;;;;;;;11.20;8.90;;;25.20;70.80;;;28.25;44.34;101888.56;5033913;28;20197;-57
2023/06/25 06:54:13;;;;;;;7.23;6.63;;;25.30;69.10;;;28.30;44.07;101884.00;5033752;28;20625;-56
2023/06/25 06:56:40;;;;;;;7.07;6.40;;;25.40;69.20;;;28.41;44.20;101882.16;5033800;28;20199;-58
2023/06/25 06:59:07;;;;;;;7.93;7.20;;;25.40;69.30;;;28.52;43.86;101883.81;5034091;28;20202;-59
2023/06/25 07:01:34;;;;;;;7.43;6.67;;;25.50;69.90;;;28.59;44.03;101881.69;5042021;28;20215;-59
2023/06/25 07:04:01;;;;;;;9.20;8.30;;;25.60;68.80;;;28.64;43.46;101881.75;5053295;28;20200;-57
2023/06/25 07:06:30;;;;;;;8.37;7.33;;;25.70;68.20;;;28.70;43.47;101888.78;5053256;28;20218;-59
2023/06/25 07:08:57;;;;;;;6.83;6.23;;;25.80;67.90;;;28.77;43.44;101886.63;5053440;28;20221;-59
2023/06/25 07:11:24;;;;;;;8.03;7.30;;;25.80;67.90;;;28.84;42.70;101885.31;5048258;28;20638;-58
2023/06/25 07:13:51;;;;;;;7.47;6.87;;;25.90;66.60;;;28.88;42.70;101888.31;5033367;28;20254;-59
2023/06/25 07:16:18;;;;;;;8.23;7.43;;;26.00;66.20;;;28.94;42.54;101876.38;5033921;28;20218;-59
2023/06/25 07:18:45;;;;;;;7.90;7.10;;;26.10;66.70;;;29.03;42.16;101885.59;5033611;28;20564;-60
2023/06/25 07:21:12;;;;;;;8.47;7.67;;;26.10;65.70;;;29.06;41.76;101885.06;5033449;28;20241;-59
2023/06/25 07:23:41;;;;;;;7.77;7.07;;;26.20;65.10;;;29.12;42.32;101878.56;5033615;28;20194;-60
2023/06/25 07:26:08;;;;;;;9.53;8.60;;;26.30;65.20;;;29.16;41.83;101868.81;5033345;28;20202;-59
2023/06/25 07:28:35;;;;;;;7.77;7.17;;;26.40;65.00;;;29.19;41.21;101857.44;5040089;28;20205;-60
2023/06/25 07:31:02;;;;;;;8.33;7.53;;;26.40;64.00;;;29.23;41.41;101863.97;5053203;28;20657;-57
2023/06/25 07:33:29;;;;;;;7.90;7.13;;;26.50;64.00;;;29.29;41.37;101857.44;5053100;28;20233;-59
2023/06/25 07:35:56;;;;;;;8.00;7.30;;;26.50;63.60;;;29.30;41.10;101859.09;5044000;28;20223;-59
2023/06/25 07:38:23;;;;;;;8.63;7.93;;;26.60;63.40;;;29.36;41.47;101857.16;5043598;28;20202;-60
2023/06/25 07:40:51;;;;;;;8.33;7.53;;;26.70;63.80;;;29.43;41.32;101857.69;5037587;28;20244;-59
2023/06/25 07:43:19;;;;;;;7.30;6.60;;;26.70;63.60;;;29.44;41.20;101849.31;5037123;28;20190;-59
2023/06/25 07:45:46;;;;;;;8.80;8.00;;;26.80;62.80;;;29.50;40.53;101848.19;5037450;28;20301;-59
2023/06/25 07:48:13;;;;;;;7.90;6.97;;;26.80;62.10;;;29.47;40.53;101848.75;5037212;28;20195;-60
2023/06/25 07:50:40;;;;;;;7.00;6.40;;;26.90;61.10;;;29.56;40.22;101842.75;5037553;28;20534;-57
2023/06/25 07:53:07;;;;;;;7.77;7.07;;;26.90;61.70;;;29.65;40.20;101843.81;5036726;28;20233;-57
2023/06/25 07:55:39;;;;;;;7.00;6.40;;;26.90;61.80;;;29.66;40.78;101840.03;5042110;28;20205;-59
2023/06/25 07:58:27;;;;;;;6.73;6.13;;;27.00;62.30;;;29.75;41.33;101847.34;5036780;28;20623;-64
2023/06/25 08:00:54;;;;;;;6.23;5.73;;;27.10;62.50;;;29.87;40.45;101844.38;5040285;28;20197;-59
2023/06/25 08:03:22;;;;;;;7.43;6.83;;;27.20;61.90;;;29.95;40.64;101846.53;5056816;28;20708;-59
2023/06/25 08:05:49;;;;;;;6.73;6.17;;;27.30;61.60;;;30.07;40.94;101844.31;5055603;28;20268;-59
2023/06/25 08:08:16;;;;;;;6.30;5.80;;;27.30;62.00;;;30.21;40.16;101848.06;5056656;28;20201;-60
2023/06/25 08:10:43;;;;;;;6.57;6.07;;;27.40;61.70;;;30.31;39.70;101842.56;5056981;28;20212;-60
2023/06/25 08:13:10;;;;;;;5.97;5.57;;;27.50;61.20;;;30.42;40.20;101844.19;5056170;28;20225;-59
2023/06/25 08:15:39;;;;;;;6.10;5.60;;;27.60;61.00;;;30.49;39.47;101844.69;5051620;28;20256;-57
2023/06/25 08:18:06;;;;;;;6.93;6.33;;;27.70;60.00;;;30.58;38.65;101848.44;5036904;28;20191;-59
2023/06/25 08:20:33;;;;;;;6.87;6.30;;;27.80;59.80;;;31.05;38.20;101847.06;5036980;28;20187;-60
2023/06/25 08:23:00;;;;;;;7.80;7.10;;;27.90;60.80;;;31.92;37.29;101852.25;5036607;28;20190;-59
2023/06/25 08:25:27;;;;;;;5.47;4.97;;;28.20;60.10;;;33.10;36.23;101845.78;5037468;28;20217;-58
2023/06/25 08:27:54;;;;;;;5.73;5.20;;;28.60;60.30;;;34.48;34.71;101837.41;5036325;28;20191;-59
2023/06/25 08:30:22;;;;;;;6.20;5.70;;;29.10;59.90;;;35.79;31.96;101834.97;5036206;28;20190;-57
2023/06/25 08:32:50;;;;;;;6.90;6.40;;;29.90;57.60;;;36.76;29.78;101836.47;5035928;28;20217;-58
2023/06/25 08:35:17;;;;;;;7.03;6.33;;;30.70;54.00;;;37.26;28.73;101832.06;5038633;28;20218;-59
2023/06/25 08:37:44;;;;;;;5.07;4.75;;;31.40;52.20;;;38.01;28.66;101822.25;5055737;28;20197;-58
2023/06/25 08:40:12;;;;;;;5.78;5.32;;;32.00;52.00;;;39.02;26.64;101823.72;5056539;28;20613;-58
2023/06/25 08:42:41;;;;;;;6.10;5.60;;;32.60;49.20;;;39.65;25.35;101819.66;5055858;28;20223;-59
2023/06/25 08:45:10;;;;;;;5.65;5.10;;;33.30;46.10;;;40.22;24.92;101827.78;5053754;28;20593;-58
2023/06/25 08:47:39;;;;;;;4.53;4.22;;;33.90;45.30;;;40.96;24.05;101828.00;5036250;28;20711;-58
2023/06/25 08:50:09;;;;;;;5.53;5.13;;;34.50;44.60;;;41.86;23.01;101829.97;5035979;28;20199;-57
2023/06/25 08:52:38;;;;;;;6.30;5.82;;;35.00;42.30;;;42.47;21.89;101828.19;5035707;28;20699;-59
2023/06/25 08:55:09;;;;;;;6.35;5.85;;;35.60;39.80;;;42.73;21.83;101823.94;5035021;28;20246;-57
2023/06/25 08:57:36;;;;;;;5.70;5.28;;;36.10;39.00;;;42.98;21.47;101820.50;5035795;28;20574;-57
2023/06/25 09:00:06;;;;;;;6.10;5.70;;;36.40;38.00;;;43.26;20.74;101820.22;5036038;28;20191;-58
2023/06/25 09:02:33;;;;;;;6.95;6.30;;;36.70;37.10;;;43.23;19.86;101812.63;5053243;28;20190;-57
2023/06/25 09:05:07;;;;;;;6.32;5.80;;;36.90;34.40;;;43.12;20.12;101819.97;5055249;28;20214;-56
2023/06/25 09:07:42;;;;;;;5.90;5.30;;;37.10;34.40;;;43.28;20.89;101809.56;5035662;28;20673;-57
2023/06/25 09:10:10;;;;;;;6.40;5.82;;;37.30;35.00;;;43.22;19.92;101811.03;5035553;28;20187;-58
2023/06/25 09:12:37;;;;;;;6.05;5.65;;;37.30;33.20;;;42.79;20.03;101808.66;5050912;28;20221;-60
2023/06/25 09:15:06;;;;;;;5.70;5.30;;;37.20;32.50;;;42.65;20.41;101805.59;5055119;28;20218;-57
2023/06/25 09:17:35;;;;;;;5.88;5.38;;;37.30;32.90;;;42.61;20.15;101811.06;5054505;28;20217;-60
2023/06/25 09:20:04;;;;;;;6.10;5.70;;;37.30;32.80;;;42.73;20.21;101818.41;5055089;28;20660;-59
2023/06/25 09:22:33;;;;;;;5.82;5.22;;;37.30;32.80;;;42.89;20.01;101805.25;5055631;28;20201;-58
2023/06/25 09:25:01;;;;;;;5.18;4.85;;;37.30;32.50;;;42.69;20.30;101804.50;5055096;28;20206;-56
2023/06/25 09:27:28;;;;;;;5.43;5.00;;;37.30;33.00;;;42.92;20.28;101804.56;5036356;28;20210;-56
2023/06/25 09:29:56;;;;;;;6.00;5.57;;;37.40;33.20;;;43.28;19.57;101803.19;5035226;28;20202;-57
2023/06/25 09:32:23;;;;;;;5.75;5.25;;;37.40;32.00;;;43.41;19.32;101799.88;5035106;28;20194;-60
2023/06/25 09:34:50;;;;;;;6.53;6.00;;;37.60;32.00;;;43.61;19.43;101798.63;5034906;28;20656;-56
2023/06/25 09:37:19;;;;;;;5.75;5.25;;;37.70;31.90;;;43.66;19.15;101803.06;5052049;28;20228;-57
2023/06/25 09:39:47;;;;;;;5.50;5.10;;;37.80;31.50;;;43.76;18.79;101802.44;5054880;28;20652;-60
2023/06/25 09:42:18;;;;;;;5.57;5.18;;;37.80;30.70;;;44.11;18.50;101799.38;5055052;28;20603;-58
2023/06/25 09:44:50;;;;;;;6.30;5.70;;;38.00;31.10;;;43.94;18.43;101806.28;5055075;28;20292;-59
2023/06/25 09:47:20;;;;;;;5.40;5.00;;;38.10;29.90;;;43.39;18.91;101791.13;5037924;28;20673;-59
2023/06/25 09:49:50;;;;;;;4.93;4.63;;;38.10;29.90;;;42.90;19.23;101790.25;5035076;28;20277;-56
2023/06/25 09:52:22;;;;;;;5.68;5.28;;;38.10;30.30;;;42.73;19.70;101788.72;5034996;28;20195;-58
2023/06/25 09:54:52;;;;;;;7.20;6.53;;;37.90;30.40;;;43.43;19.14;101786.47;5034403;28;20300;-57
2023/06/25 09:57:22;;;;;;;6.30;5.80;;;37.80;30.80;;;43.37;19.38;101787.94;5034856;28;20205;-58
2023/06/25 09:59:50;;;;;;;5.78;5.30;;;37.90;30.80;;;43.01;19.70;101786.50;5034552;28;20206;-58
2023/06/25 10:02:18;;;;;;;6.32;5.82;;;37.80;30.90;;;42.08;19.70;101782.19;5048875;28;20220;-56
2023/06/25 10:04:46;;;;;;;6.78;6.18;;;37.60;30.20;;;40.63;21.64;101783.22;5053965;28;20296;-56
2023/06/25 10:07:14;;;;;;;6.20;5.68;;;37.10;30.90;;;40.05;21.86;101784.69;5053581;28;20198;-59
2023/06/25 10:09:53;;;;;;;5.88;5.47;;;36.70;31.90;;;39.43;22.54;101776.75;5054440;28;20536;-57
2023/06/25 10:12:20;;;;;;;6.35;5.88;;;36.20;32.60;;;39.53;22.06;101776.28;5054445;28;20197;-58